Time;durP1;ratioP1;P1;durP2;ratioP2;P2;SDS_P1;SDS_P2;PMS_P1;PMS_P2;Temp;Humidity;BMP_temperature;BMP_pressure;BME280_temperature;BME280_humidity;BME280_pressure;Samples;Min_cycle;Max_cycle;Signal;HPM_P1;HPM_P2
2022/07/07 00:02:32;;;;;;;5.82;5.18;;;;;;;;;;10357772;28;20506;-73
2022/07/07 00:07:32;;;;;;;6.72;5.70;;;;;;;;;;10341054;28;20034;-72
2022/07/07 00:12:32;;;;;;;7.65;5.65;;;;;;;;;;10356867;28;20046;-73
2022/07/07 00:17:32;;;;;;;7.97;5.45;;;;;;;;;;10340742;28;20041;-78
2022/07/07 00:22:33;;;;;;;5.95;5.32;;;;;;;;;;10359818;28;20033;-77
2022/07/07 00:27:33;;;;;;;7.18;5.35;;;;;;;;;;10342899;28;20129;-73
2022/07/07 00:32:33;;;;;;;7.55;5.30;;;;;;;;;;10340176;28;20096;-82
2022/07/07 00:37:33;;;;;;;7.65;5.10;;;;;;;;;;10334179;28;20037;-75
2022/07/07 00:42:34;;;;;;;8.05;6.00;;;;;;;;;;10341716;28;20504;-74
2022/07/07 00:47:35;;;;;;;8.80;5.30;;;;;;;;;;10325407;28;20059;-75
2022/07/07 00:52:35;;;;;;;8.13;5.38;;;;;;;;;;10362854;28;20044;-73
2022/07/07 00:57:36;;;;;;;9.63;4.90;;;;;;;;;;10360695;28;20027;-77
2022/07/07 01:02:36;;;;;;;6.90;5.57;;;;;;;;;;10330180;28;20275;-76
2022/07/07 01:07:37;;;;;;;6.72;4.32;;;;;;;;;;10340080;28;20038;-76
2022/07/07 01:12:38;;;;;;;9.03;4.70;;;;;;;;;;10325601;28;20124;-74
2022/07/07 01:17:39;;;;;;;5.95;4.60;;;;;;;;;;10308657;28;20747;-77
2022/07/07 01:22:52;;;;;;;4.13;3.72;;;;;;;;;;10325609;28;20121;-73
2022/07/07 01:27:53;;;;;;;5.53;4.10;;;;;;;;;;10332095;28;20499;-78
2022/07/07 01:32:53;;;;;;;4.00;3.40;;;;;;;;;;10364332;28;20479;-73
2022/07/07 01:37:53;;;;;;;6.10;4.13;;;;;;;;;;10347294;28;20030;-76
2022/07/07 01:42:53;;;;;;;5.05;4.57;;;;;;;;;;10309686;28;20058;-75
2022/07/07 01:47:54;;;;;;;4.25;3.50;;;;;;;;;;10261816;28;20066;-77
2022/07/07 01:52:54;;;;;;;9.23;3.63;;;;;;;;;;10262567;28;20035;-79
2022/07/07 01:57:54;;;;;;;5.25;3.80;;;;;;;;;;10281261;28;20097;-76
2022/07/07 02:02:54;;;;;;;4.38;3.53;;;;;;;;;;10280318;28;20031;-77
2022/07/07 02:07:55;;;;;;;12.38;3.60;;;;;;;;;;10280416;28;20114;-77
2022/07/07 02:12:55;;;;;;;3.88;3.33;;;;;;;;;;10281480;28;20043;-77
2022/07/07 02:17:55;;;;;;;4.35;2.80;;;;;;;;;;10280070;28;20030;-79
2022/07/07 02:22:55;;;;;;;3.93;3.03;;;;;;;;;;10280684;28;20068;-80
2022/07/07 02:27:56;;;;;;;6.82;4.63;;;;;;;;;;10280642;28;20391;-78
2022/07/07 02:32:56;;;;;;;3.60;2.67;;;;;;;;;;10279209;28;20436;-79
2022/07/07 02:37:57;;;;;;;4.77;3.00;;;;;;;;;;10279126;28;20034;-76
2022/07/07 02:42:57;;;;;;;3.53;3.03;;;;;;;;;;10277488;28;20038;-78
2022/07/07 02:47:57;;;;;;;4.83;3.27;;;;;;;;;;10355763;28;20061;-74
2022/07/07 02:52:57;;;;;;;4.43;2.50;;;;;;;;;;10360111;28;20026;-77
2022/07/07 02:57:58;;;;;;;2.50;2.30;;;;;;;;;;10344012;28;20571;-76
2022/07/07 03:02:59;;;;;;;3.78;2.47;;;;;;;;;;10320513;28;20038;-76
2022/07/07 03:08:00;;;;;;;3.45;2.53;;;;;;;;;;10334350;28;20088;-76
2022/07/07 03:13:00;;;;;;;4.75;2.60;;;;;;;;;;10344378;28;20492;-72
2022/07/07 03:18:00;;;;;;;4.45;3.03;;;;;;;;;;10345001;28;20037;-76
2022/07/07 03:23:00;;;;;;;3.22;2.53;;;;;;;;;;10340939;28;20038;-76
2022/07/07 03:28:01;;;;;;;3.67;2.83;;;;;;;;;;10319651;28;20037;-75
2022/07/07 03:33:01;;;;;;;4.60;2.43;;;;;;;;;;10303592;28;20031;-76
2022/07/07 03:38:01;;;;;;;11.17;3.23;;;;;;;;;;10335495;28;20034;-73
2022/07/07 03:43:02;;;;;;;3.95;2.42;;;;;;;;;;10332264;28;20258;-78
2022/07/07 03:48:02;;;;;;;17.23;4.17;;;;;;;;;;10303861;28;20133;-77
2022/07/07 03:53:02;;;;;;;2.23;2.03;;;;;;;;;;10303165;28;20035;-72
2022/07/07 03:58:02;;;;;;;3.15;2.58;;;;;;;;;;10319080;28;20084;-77
2022/07/07 04:03:03;;;;;;;6.60;2.53;;;;;;;;;;10303756;28;20074;-78
2022/07/07 04:08:03;;;;;;;3.88;2.95;;;;;;;;;;10319226;28;20085;-75
2022/07/07 04:13:03;;;;;;;3.57;2.30;;;;;;;;;;10322171;28;20042;-75
2022/07/07 04:18:04;;;;;;;3.65;2.30;;;;;;;;;;10326294;28;20272;-78
2022/07/07 04:23:04;;;;;;;2.13;1.80;;;;;;;;;;10327336;28;20412;-77
2022/07/07 04:28:04;;;;;;;2.47;2.17;;;;;;;;;;10310488;28;20567;-76
2022/07/07 04:33:05;;;;;;;6.30;3.03;;;;;;;;;;10347931;28;20288;-76
2022/07/07 04:38:05;;;;;;;9.27;2.60;;;;;;;;;;10362907;28;20041;-75
2022/07/07 04:43:05;;;;;;;4.90;2.80;;;;;;;;;;10347744;28;20038;-78
2022/07/07 04:48:06;;;;;;;8.93;3.22;;;;;;;;;;10364240;28;20371;-76
2022/07/07 04:53:06;;;;;;;1.75;1.60;;;;;;;;;;10346784;28;20047;-79
2022/07/07 04:58:06;;;;;;;5.75;2.45;;;;;;;;;;10346277;28;20034;-73
2022/07/07 05:03:06;;;;;;;3.42;2.20;;;;;;;;;;10329636;28;20030;-76
2022/07/07 05:08:07;;;;;;;8.32;2.60;;;;;;;;;;10342664;28;20033;-77
2022/07/07 05:13:07;;;;;;;1.65;1.48;;;;;;;;;;10309742;28;20516;-73
2022/07/07 05:18:07;;;;;;;2.78;2.05;;;;;;;;;;10323981;28;20397;-72
2022/07/07 05:23:07;;;;;;;4.43;2.25;;;;;;;;;;10308300;28;20515;-73
2022/07/07 05:28:07;;;;;;;6.85;2.17;;;;;;;;;;10323432;28;20034;-75
2022/07/07 05:33:08;;;;;;;5.10;2.42;;;;;;;;;;10307251;28;20065;-79
2022/07/07 05:38:08;;;;;;;6.75;1.90;;;;;;;;;;10339911;28;20034;-74
2022/07/07 05:43:08;;;;;;;4.28;1.52;;;;;;;;;;10342344;28;20066;-73
2022/07/07 05:48:08;;;;;;;6.00;2.17;;;;;;;;;;10327834;28;20058;-78
2022/07/07 05:53:09;;;;;;;4.57;1.60;;;;;;;;;;10346429;28;20110;-76
2022/07/07 05:58:09;;;;;;;4.07;2.70;;;;;;;;;;10334825;28;20056;-71
2022/07/07 06:03:09;;;;;;;7.50;2.00;;;;;;;;;;10321276;28;20272;-73
2022/07/07 06:08:10;;;;;;;4.10;1.80;;;;;;;;;;10322082;28;20045;-73
2022/07/07 06:13:10;;;;;;;7.82;2.22;;;;;;;;;;10321299;28;20500;-78
2022/07/07 06:18:10;;;;;;;3.20;1.83;;;;;;;;;;10314785;28;20037;-76
2022/07/07 06:23:11;;;;;;;4.97;2.10;;;;;;;;;;10361619;28;20072;-73
2022/07/07 06:28:11;;;;;;;4.97;1.60;;;;;;;;;;10305162;28;20270;-77
2022/07/07 06:33:11;;;;;;;3.30;2.08;;;;;;;;;;10327862;28;20041;-72
2022/07/07 06:38:12;;;;;;;4.15;1.98;;;;;;;;;;10344019;28;20036;-77
2022/07/07 06:54:48;;;;;;;2.97;1.50;;;;;;;;;;10327859;28;20034;-73
2022/07/07 06:59:48;;;;;;;2.97;1.25;;;;;;;;;;10333378;28;20050;-74
2022/07/07 07:04:50;;;;;;;3.40;1.77;;;;;;;;;;10306994;28;20121;-73
2022/07/07 07:09:50;;;;;;;4.68;1.65;;;;;;;;;;10304384;28;20408;-76
2022/07/07 07:14:51;;;;;;;5.65;1.83;;;;;;;;;;10296715;28;20441;-72
2022/07/07 07:19:51;;;;;;;2.97;1.63;;;;;;;;;;10294668;28;20117;-73
2022/07/07 07:24:52;;;;;;;5.80;1.85;;;;;;;;;;10306107;28;20030;-72
2022/07/07 07:29:52;;;;;;;3.37;1.50;;;;;;;;;;10293011;28;20093;-80
2022/07/07 07:34:52;;;;;;;1.95;1.10;;;;;;;;;;10322620;28;20038;-73
2022/07/07 07:39:52;;;;;;;4.80;1.80;;;;;;;;;;10309271;28;20034;-77
2022/07/07 07:45:11;;;;;;;3.83;1.08;;;;;;;;;;10327301;28;20030;-73
2022/07/07 07:50:13;;;;;;;3.70;1.45;;;;;;;;;;10324826;28;20657;-74
2022/07/07 07:55:15;;;;;;;5.28;1.60;;;;;;;;;;10357474;28;20484;-74
2022/07/07 08:00:17;;;;;;;7.97;1.77;;;;;;;;;;10363679;23;20046;-73
2022/07/07 08:05:18;;;;;;;3.30;1.40;;;;;;;;;;10348047;28;20529;-73
2022/07/07 08:10:18;;;;;;;8.02;1.58;;;;;;;;;;10362712;28;20042;-76
2022/07/07 08:15:19;;;;;;;3.15;1.70;;;;;;;;;;10335638;28;20048;-72
2022/07/07 08:20:19;;;;;;;3.27;1.77;;;;;;;;;;10343468;28;20052;-73
2022/07/07 08:25:19;;;;;;;2.22;0.90;;;;;;;;;;10357849;28;20418;-72
2022/07/07 08:30:20;;;;;;;1.25;1.15;;;;;;;;;;10330371;28;20101;-77
2022/07/07 08:35:20;;;;;;;4.30;1.10;;;;;;;;;;10334519;28;20030;-74
2022/07/07 08:40:20;;;;;;;3.78;1.38;;;;;;;;;;10362147;28;20403;-76
2022/07/07 08:45:21;;;;;;;1.70;1.10;;;;;;;;;;10341969;28;20034;-79
2022/07/07 08:50:21;;;;;;;2.50;1.10;;;;;;;;;;10379108;28;20497;-78
2022/07/07 08:55:22;;;;;;;3.10;1.10;;;;;;;;;;10391632;28;20111;-78
2022/07/07 09:00:23;;;;;;;1.48;0.90;;;;;;;;;;10381951;28;20045;-78
2022/07/07 09:05:24;;;;;;;1.83;1.02;;;;;;;;;;10389642;28;20564;-79
2022/07/07 09:10:28;;;;;;;5.18;1.40;;;;;;;;;;10381522;28;20041;-76
2022/07/07 09:15:37;;;;;;;5.00;1.35;;;;;;;;;;10405628;28;20033;-72
2022/07/07 09:20:37;;;;;;;2.53;1.00;;;;;;;;;;10389007;28;20034;-77
2022/07/07 09:25:39;;;;;;;4.70;1.10;;;;;;;;;;10381818;28;20033;-80
2022/07/07 09:30:41;;;;;;;1.50;1.20;;;;;;;;;;10394539;28;20036;-75
2022/07/07 09:41:08;;;;;;;3.58;0.98;;;;;;;;;;10427289;28;20495;-75
2022/07/07 09:46:17;;;;;;;1.25;1.10;;;;;;;;;;10414911;28;20025;-75
2022/07/07 09:51:31;;;;;;;7.60;1.25;;;;;;;;;;10396259;28;20388;-72
2022/07/07 09:56:31;;;;;;;1.17;0.98;;;;;;;;;;10414767;28;20025;-74
2022/07/07 10:01:32;;;;;;;3.63;1.65;;;;;;;;;;10396509;28;20049;-74
2022/07/07 10:06:34;;;;;;;2.60;0.98;;;;;;;;;;10412438;28;20044;-74
2022/07/07 10:11:41;;;;;;;4.90;1.58;;;;;;;;;;10411746;28;20091;-74
2022/07/07 10:16:42;;;;;;;2.38;1.17;;;;;;;;;;10396254;28;20032;-75
2022/07/07 10:21:44;;;;;;;1.60;0.93;;;;;;;;;;10412539;28;20033;-75
2022/07/07 10:26:50;;;;;;;5.95;1.33;;;;;;;;;;10395984;28;20053;-74
2022/07/07 10:31:51;;;;;;;1.05;0.95;;;;;;;;;;10413364;28;20053;-75
2022/07/07 10:36:51;;;;;;;3.03;1.48;;;;;;;;;;10412287;28;20053;-74
2022/07/07 10:42:06;;;;;;;3.95;1.50;;;;;;;;;;10395229;28;20032;-73
2022/07/07 10:47:12;;;;;;;2.95;1.63;;;;;;;;;;10412573;28;20029;-74
2022/07/07 10:52:17;;;;;;;2.47;1.60;;;;;;;;;;10394832;28;20479;-75
2022/07/07 10:57:18;;;;;;;5.22;1.52;;;;;;;;;;10411636;28;20490;-75
2022/07/07 11:02:31;;;;;;;10.88;1.70;;;;;;;;;;10394588;28;20057;-75
2022/07/07 11:07:32;;;;;;;2.17;1.58;;;;;;;;;;10410989;28;20053;-75
2022/07/07 11:12:40;;;;;;;5.82;1.60;;;;;;;;;;10394411;28;20068;-75
2022/07/07 11:18:07;;;;;;;2.22;1.60;;;;;;;;;;10410663;28;20025;-76
2022/07/07 11:23:11;;;;;;;4.93;1.73;;;;;;;;;;10410510;28;20025;-75
2022/07/07 11:28:12;;;;;;;3.88;1.65;;;;;;;;;;10410335;28;20030;-74
2022/07/07 11:33:12;;;;;;;5.78;1.58;;;;;;;;;;10411443;28;20025;-75
2022/07/07 11:38:12;;;;;;;8.15;2.33;;;;;;;;;;10393866;28;20025;-75
2022/07/07 11:43:23;;;;;;;3.85;2.13;;;;;;;;;;10393768;28;20041;-75
2022/07/07 11:48:23;;;;;;;3.38;1.98;;;;;;;;;;10393248;28;20487;-74
2022/07/07 11:53:24;;;;;;;9.40;2.27;;;;;;;;;;10393204;28;20034;-74
2022/07/07 11:58:24;;;;;;;3.67;2.17;;;;;;;;;;10410690;28;20029;-74
2022/07/07 12:03:29;;;;;;;1.60;1.50;;;;;;;;;;10392806;28;20581;-73
2022/07/07 12:08:33;;;;;;;3.00;1.80;;;;;;;;;;10409806;28;20056;-75
2022/07/07 12:13:33;;;;;;;1.98;1.58;;;;;;;;;;10408930;28;20414;-74
2022/07/07 12:18:34;;;;;;;3.90;1.83;;;;;;;;;;10392521;28;20125;-74
2022/07/07 12:23:35;;;;;;;2.00;1.75;;;;;;;;;;10392821;28;20116;-75
2022/07/07 12:28:36;;;;;;;3.55;1.73;;;;;;;;;;10409070;28;20494;-75
2022/07/07 12:33:37;;;;;;;6.82;1.73;;;;;;;;;;10411209;28;20033;-75
2022/07/07 12:38:39;;;;;;;1.90;1.73;;;;;;;;;;10417384;28;20548;-74
2022/07/07 12:43:39;;;;;;;9.75;2.15;;;;;;;;;;10415978;28;20466;-74
2022/07/07 12:48:43;;;;;;;5.72;2.17;;;;;;;;;;10417017;28;20095;-73
2022/07/07 12:53:44;;;;;;;1.58;1.48;;;;;;;;;;10415786;28;20410;-75
2022/07/07 12:58:46;;;;;;;3.20;1.60;;;;;;;;;;10393081;28;20041;-75
2022/07/07 13:03:51;;;;;;;4.53;2.13;;;;;;;;;;10428663;28;20037;-74
2022/07/07 13:08:52;;;;;;;4.15;1.92;;;;;;;;;;10398463;28;20096;-74
2022/07/07 13:13:52;;;;;;;3.03;1.60;;;;;;;;;;10415018;28;20483;-75
2022/07/07 13:18:53;;;;;;;2.00;1.67;;;;;;;;;;10398067;28;20140;-75
2022/07/07 13:23:53;;;;;;;2.22;1.50;;;;;;;;;;10397877;28;20037;-75
2022/07/07 13:28:53;;;;;;;4.35;1.45;;;;;;;;;;10397707;28;20455;-75
2022/07/07 13:33:53;;;;;;;6.25;1.75;;;;;;;;;;10397621;28;20121;-75
2022/07/07 13:38:54;;;;;;;2.15;1.50;;;;;;;;;;10397433;28;20053;-75
2022/07/07 13:43:54;;;;;;;2.47;1.80;;;;;;;;;;10413961;28;20554;-74
2022/07/07 13:48:54;;;;;;;2.03;1.58;;;;;;;;;;10414448;28;20415;-75
2022/07/07 13:53:54;;;;;;;1.90;1.65;;;;;;;;;;10396548;28;20034;-74
2022/07/07 13:58:55;;;;;;;2.10;1.55;;;;;;;;;;10396623;28;20045;-75
2022/07/07 14:03:55;;;;;;;2.42;1.20;;;;;;;;;;10396552;28;20034;-75
2022/07/07 14:08:55;;;;;;;3.00;1.73;;;;;;;;;;10396503;28;20034;-75
2022/07/07 14:13:56;;;;;;;2.70;1.70;;;;;;;;;;10412475;28;20566;-75
2022/07/07 14:18:56;;;;;;;5.05;1.63;;;;;;;;;;10395733;28;20124;-75
2022/07/07 14:23:56;;;;;;;3.33;1.60;;;;;;;;;;10413197;28;20037;-76
2022/07/07 14:28:56;;;;;;;1.88;1.20;;;;;;;;;;10395267;28;20029;-76
2022/07/07 14:33:56;;;;;;;3.00;1.63;;;;;;;;;;10395245;28;20029;-75
2022/07/07 14:38:57;;;;;;;1.90;1.70;;;;;;;;;;10394990;28;20123;-75
2022/07/07 14:43:57;;;;;;;5.33;1.97;;;;;;;;;;10411426;28;20032;-76
2022/07/07 14:48:58;;;;;;;3.97;1.53;;;;;;;;;;10412384;28;20268;-75
2022/07/07 14:53:58;;;;;;;3.92;1.30;;;;;;;;;;10412475;28;20030;-75
2022/07/07 14:58:59;;;;;;;4.05;1.70;;;;;;;;;;10410900;28;20076;-76
2022/07/07 15:03:59;;;;;;;6.38;2.28;;;;;;;;;;10417595;28;20550;-76
2022/07/07 15:09:00;;;;;;;5.32;1.63;;;;;;;;;;10394058;28;20029;-75
2022/07/07 15:14:01;;;;;;;7.55;1.80;;;;;;;;;;10411728;28;20059;-75
2022/07/07 15:19:01;;;;;;;2.65;1.65;;;;;;;;;;10393757;28;20096;-75
2022/07/07 15:24:02;;;;;;;4.30;1.85;;;;;;;;;;10393807;28;20057;-75
2022/07/07 15:29:02;;;;;;;1.45;1.35;;;;;;;;;;10411848;28;20487;-76
2022/07/07 15:34:04;;;;;;;1.80;1.60;;;;;;;;;;10410957;28;20120;-75
2022/07/07 15:39:04;;;;;;;2.97;1.70;;;;;;;;;;10394432;28;20022;-74
2022/07/07 15:44:05;;;;;;;2.28;2.08;;;;;;;;;;10393371;28;20407;-75
2022/07/07 15:49:06;;;;;;;8.45;2.08;;;;;;;;;;10393063;28;20026;-75
2022/07/07 15:54:06;;;;;;;2.63;1.70;;;;;;;;;;10411572;28;20115;-76
2022/07/07 15:59:07;;;;;;;3.72;2.00;;;;;;;;;;10393237;28;20545;-73
2022/07/07 16:09:26;;;;;;;8.25;2.30;;;;;;;;;;10416410;28;20017;-74
2022/07/07 16:14:26;;;;;;;3.75;2.40;;;;;;;;;;10400999;28;20482;-73
2022/07/07 16:19:27;;;;;;;6.05;2.67;;;;;;;;;;10417576;28;20029;-74
2022/07/07 16:24:27;;;;;;;3.60;2.70;;;;;;;;;;10418981;28;20025;-75
2022/07/07 16:29:27;;;;;;;3.70;2.58;;;;;;;;;;10400214;28;20548;-75
2022/07/07 16:34:28;;;;;;;4.20;2.07;;;;;;;;;;10400852;28;20075;-75
2022/07/07 16:39:28;;;;;;;3.60;2.28;;;;;;;;;;10400078;28;20415;-76
2022/07/07 16:44:29;;;;;;;3.65;2.20;;;;;;;;;;10400186;28;20127;-74
2022/07/07 16:49:30;;;;;;;5.15;2.00;;;;;;;;;;10399545;28;20083;-75
2022/07/07 16:54:30;;;;;;;8.63;2.60;;;;;;;;;;10399272;28;20044;-75
2022/07/07 16:59:31;;;;;;;4.13;2.40;;;;;;;;;;10417107;28;20091;-76
2022/07/07 17:04:31;;;;;;;2.60;2.38;;;;;;;;;;10399267;28;20041;-75
2022/07/07 17:09:31;;;;;;;6.57;2.38;;;;;;;;;;10399737;28;20519;-75
2022/07/07 17:14:32;;;;;;;4.63;2.83;;;;;;;;;;10398996;28;20026;-75
2022/07/07 17:19:32;;;;;;;10.57;2.87;;;;;;;;;;10414756;28;20517;-74
2022/07/07 17:24:32;;;;;;;5.95;3.33;;;;;;;;;;10414983;28;20257;-75
2022/07/07 17:29:33;;;;;;;5.03;3.50;;;;;;;;;;10398173;28;20489;-75
2022/07/07 17:34:33;;;;;;;8.85;4.00;;;;;;;;;;10398342;28;20025;-75
2022/07/07 17:39:33;;;;;;;8.60;3.80;;;;;;;;;;10398144;28;20033;-74
2022/07/07 17:44:33;;;;;;;5.53;3.70;;;;;;;;;;10398257;28;20060;-75
2022/07/07 17:49:34;;;;;;;5.85;4.03;;;;;;;;;;10397399;28;20037;-75
2022/07/07 17:54:34;;;;;;;4.88;3.55;;;;;;;;;;10397279;28;20026;-75
2022/07/07 17:59:34;;;;;;;3.60;3.20;;;;;;;;;;10397045;28;20052;-75
2022/07/07 18:04:35;;;;;;;6.15;3.55;;;;;;;;;;10397331;28;20041;-74
2022/07/07 18:09:35;;;;;;;7.40;4.60;;;;;;;;;;10397068;28;20061;-76
2022/07/07 18:14:36;;;;;;;8.60;4.03;;;;;;;;;;10397046;28;20029;-75
2022/07/07 18:19:36;;;;;;;5.47;4.03;;;;;;;;;;10396445;28;20036;-75
2022/07/07 18:24:36;;;;;;;12.82;3.67;;;;;;;;;;10396235;28;20120;-75
2022/07/07 18:29:37;;;;;;;5.88;4.05;;;;;;;;;;10396311;28;20033;-75
2022/07/07 18:34:38;;;;;;;8.15;4.10;;;;;;;;;;10396152;28;20036;-74
2022/07/07 18:39:38;;;;;;;6.13;4.07;;;;;;;;;;10396224;28;20451;-74
2022/07/07 18:44:38;;;;;;;6.00;3.67;;;;;;;;;;10395682;28;20045;-74
2022/07/07 18:49:39;;;;;;;6.95;4.72;;;;;;;;;;10395035;28;20038;-75
2022/07/07 18:54:39;;;;;;;5.30;4.30;;;;;;;;;;10411889;28;20061;-74
2022/07/07 18:59:39;;;;;;;5.50;4.63;;;;;;;;;;10414560;28;20060;-74
2022/07/07 19:04:41;;;;;;;7.72;4.43;;;;;;;;;;10394737;28;20040;-75
2022/07/07 19:09:41;;;;;;;7.03;4.47;;;;;;;;;;10394318;28;20060;-76
2022/07/07 19:14:41;;;;;;;9.77;4.80;;;;;;;;;;10378135;28;20142;-75
2022/07/07 19:19:42;;;;;;;14.05;6.85;;;;;;;;;;10394252;28;20362;-74
2022/07/07 19:24:42;;;;;;;8.65;4.68;;;;;;;;;;10394195;28;20029;-75
2022/07/07 19:29:43;;;;;;;8.18;5.93;;;;;;;;;;10411628;28;20411;-75
2022/07/07 19:34:43;;;;;;;8.25;5.30;;;;;;;;;;10393948;28;20055;-75
2022/07/07 19:39:43;;;;;;;12.10;5.40;;;;;;;;;;10393851;28;20099;-75
2022/07/07 19:44:43;;;;;;;9.73;5.63;;;;;;;;;;10400078;28;20044;-74
2022/07/07 19:49:48;;;;;;;10.45;5.00;;;;;;;;;;10402500;28;20034;-76
2022/07/07 19:54:48;;;;;;;9.23;5.20;;;;;;;;;;10418892;28;20034;-75
2022/07/07 19:59:48;;;;;;;8.27;4.90;;;;;;;;;;10402148;28;20042;-75
2022/07/07 20:04:49;;;;;;;7.40;4.80;;;;;;;;;;10401834;28;20112;-74
2022/07/07 20:09:49;;;;;;;8.40;5.63;;;;;;;;;;10401460;28;20029;-76
2022/07/07 20:14:49;;;;;;;10.85;5.72;;;;;;;;;;10401160;28;20060;-75
2022/07/07 20:19:49;;;;;;;9.30;5.40;;;;;;;;;;10401182;28;20120;-75
2022/07/07 20:24:50;;;;;;;13.02;6.57;;;;;;;;;;10400827;28;20079;-75
2022/07/07 20:29:51;;;;;;;10.52;5.30;;;;;;;;;;10400743;28;20553;-75
2022/07/07 20:34:51;;;;;;;9.93;6.10;;;;;;;;;;10400901;28;20075;-75
2022/07/07 20:39:52;;;;;;;10.00;5.38;;;;;;;;;;10400375;28;20033;-75
2022/07/07 20:44:52;;;;;;;11.23;5.38;;;;;;;;;;10400153;28;20061;-76
2022/07/07 20:49:52;;;;;;;8.32;5.53;;;;;;;;;;10417795;28;20511;-75
2022/07/07 20:54:52;;;;;;;8.02;5.05;;;;;;;;;;10399266;28;20034;-73
2022/07/07 20:59:53;;;;;;;10.57;5.63;;;;;;;;;;10399566;28;20156;-73
2022/07/07 21:04:53;;;;;;;7.63;4.90;;;;;;;;;;10399767;28;20033;-75
2022/07/07 21:09:53;;;;;;;11.38;5.85;;;;;;;;;;10399300;28;20034;-75
2022/07/07 21:14:54;;;;;;;8.32;5.57;;;;;;;;;;10416880;28;20037;-74
2022/07/07 21:19:55;;;;;;;9.52;4.97;;;;;;;;;;10399269;28;20116;-74
2022/07/07 21:24:55;;;;;;;9.20;4.67;;;;;;;;;;10416654;28;20543;-75
2022/07/07 21:29:59;;;;;;;7.55;4.28;;;;;;;;;;10416594;28;20507;-75
2022/07/07 21:35:00;;;;;;;7.22;4.03;;;;;;;;;;10398742;28;20057;-75
2022/07/07 21:40:00;;;;;;;9.60;5.53;;;;;;;;;;10398558;28;20478;-75
2022/07/07 21:45:01;;;;;;;7.40;4.93;;;;;;;;;;10397927;28;20108;-75
2022/07/07 21:50:02;;;;;;;7.45;5.13;;;;;;;;;;10414765;28;20056;-76
2022/07/07 21:55:02;;;;;;;5.75;4.75;;;;;;;;;;10414280;28;20072;-76
2022/07/07 22:00:03;;;;;;;10.00;4.53;;;;;;;;;;10389601;28;20080;-75
2022/07/07 22:10:22;;;;;;;6.75;4.65;;;;;;;;;;10415697;28;20113;-75
2022/07/07 22:15:24;;;;;;;5.32;4.63;;;;;;;;;;10414815;28;20108;-76
2022/07/07 22:20:24;;;;;;;17.40;7.18;;;;;;;;;;10396809;28;20037;-75
2022/07/07 22:25:24;;;;;;;9.73;5.60;;;;;;;;;;10414310;28;20121;-75
2022/07/07 22:30:25;;;;;;;7.20;4.65;;;;;;;;;;10396078;28;20115;-75
2022/07/07 22:35:27;;;;;;;5.05;4.13;;;;;;;;;;10412845;28;20026;-75
2022/07/07 22:40:27;;;;;;;5.43;4.00;;;;;;;;;;10414128;28;20542;-74
2022/07/07 22:45:28;;;;;;;7.45;4.57;;;;;;;;;;10412330;28;20120;-74
2022/07/07 22:50:28;;;;;;;8.13;5.55;;;;;;;;;;10395704;28;20029;-74
2022/07/07 22:55:28;;;;;;;7.77;4.63;;;;;;;;;;10413218;28;20069;-75
2022/07/07 23:00:29;;;;;;;9.15;5.00;;;;;;;;;;10411784;28;20107;-76
2022/07/07 23:05:29;;;;;;;5.03;4.53;;;;;;;;;;10413106;28;20036;-76
2022/07/07 23:10:29;;;;;;;6.32;4.55;;;;;;;;;;10394853;28;20575;-75
2022/07/07 23:15:30;;;;;;;6.60;4.55;;;;;;;;;;10395125;28;20037;-75
2022/07/07 23:20:30;;;;;;;6.32;4.80;;;;;;;;;;10394690;28;20071;-75
2022/07/07 23:25:30;;;;;;;6.25;4.75;;;;;;;;;;10395180;28;20443;-74
2022/07/07 23:30:31;;;;;;;5.07;4.47;;;;;;;;;;10411014;28;20160;-75
2022/07/07 23:35:31;;;;;;;4.88;4.40;;;;;;;;;;10411368;28;20487;-75
2022/07/07 23:40:32;;;;;;;6.18;5.10;;;;;;;;;;10394584;28;20506;-75
2022/07/07 23:45:32;;;;;;;7.15;5.70;;;;;;;;;;10394598;28;20396;-74
2022/07/07 23:50:32;;;;;;;10.10;7.03;;;;;;;;;;10410583;28;20033;-74
2022/07/07 23:55:32;;;;;;;7.90;5.63;;;;;;;;;;10394796;28;20681;-75
